Time;durP1;ratioP1;P1;durP2;ratioP2;P2;SDS_P1;SDS_P2;PMS_P1;PMS_P2;Temp;Humidity;BMP_temperature;BMP_pressure;BME280_temperature;BME280_humidity;BME280_pressure;Samples;Min_cycle;Max_cycle;Signal;HPM_P1;HPM_P2
2023/02/28 00:01:25;;;;;;;0.00;0.00;;;;;;;-0.35;87.40;101933.72;4955546;28;20181;-72
2023/02/28 00:03:51;;;;;;;0.00;0.00;;;;;;;-0.32;87.35;101927.13;4955551;28;20175;-72
2023/02/28 00:06:17;;;;;;;0.00;0.00;;;;;;;-0.21;87.50;101934.59;4955259;28;20272;-72
2023/02/28 00:08:42;;;;;;;0.00;0.00;;;;;;;-0.15;87.39;101936.44;4955305;28;20174;-74
2023/02/28 00:11:11;;;;;;;0.00;0.00;;;;;;;-0.15;87.26;101920.31;4955336;28;20193;-72
2023/02/28 00:13:40;;;;;;;0.00;0.00;;;;;;;-0.15;87.06;101925.69;4955671;28;20191;-71
2023/02/28 00:16:08;;;;;;;0.17;0.17;;;;;;;-0.15;86.63;101930.25;4955164;28;20182;-73
2023/02/28 00:18:34;;;;;;;0.00;0.00;;;;;;;-0.15;86.44;101931.06;4955291;28;20185;-73
2023/02/28 00:21:00;;;;;;;0.20;0.20;;;;;;;-0.24;86.37;101926.94;4955062;28;20182;-72
2023/02/28 00:23:26;;;;;;;0.10;0.10;;;;;;;-0.33;85.61;101925.47;4955106;28;20183;-71
2023/02/28 00:25:52;;;;;;;1.43;0.23;;;;;;;-0.37;84.73;101925.03;4954976;28;20182;-72
2023/02/28 00:28:18;;;;;;;0.00;0.00;;;;;;;-0.44;85.37;101917.97;4954970;28;20229;-73
2023/02/28 00:30:44;;;;;;;0.00;0.00;;;;;;;-0.50;85.44;101918.81;4955030;28;20189;-70
2023/02/28 00:33:10;;;;;;;0.00;0.00;;;;;;;-0.54;85.07;101926.44;4954845;28;20203;-73
2023/02/28 00:35:35;;;;;;;0.00;0.00;;;;;;;-0.54;85.45;101913.03;4954795;28;20194;-72
2023/02/28 00:38:01;;;;;;;0.00;0.00;;;;;;;-0.52;85.14;101924.38;4954862;28;20197;-72
2023/02/28 00:40:27;;;;;;;0.30;0.30;;;;;;;-0.46;85.80;101920.03;4954838;28;20266;-72
2023/02/28 00:42:52;;;;;;;0.77;0.77;;;;;;;-0.60;84.83;101911.94;4954774;28;20179;-72
2023/02/28 00:45:17;;;;;;;0.00;0.00;;;;;;;-0.70;84.94;101906.16;4954576;28;20171;-75
2023/02/28 00:47:42;;;;;;;0.00;0.00;;;;;;;-0.79;84.89;101912.72;4954427;28;20218;-71
2023/02/28 00:50:09;;;;;;;0.30;0.30;;;;;;;-0.88;85.28;101913.91;4954694;28;20211;-72
2023/02/28 00:52:34;;;;;;;0.00;0.00;;;;;;;-0.94;85.26;101920.91;4954623;28;20175;-72
2023/02/28 00:54:59;;;;;;;0.00;0.00;;;;;;;-1.00;85.21;101915.50;4954637;28;20245;-72
2023/02/28 00:57:25;;;;;;;0.00;0.00;;;;;;;-1.00;85.94;101918.19;4954392;28;20179;-77
2023/02/28 00:59:50;;;;;;;0.30;0.30;;;;;;;-1.06;85.65;101914.44;4954492;28;20650;-72
2023/02/28 01:02:16;;;;;;;0.40;0.40;;;;;;;-1.12;86.10;101917.09;4953644;28;20187;-73
2023/02/28 01:04:41;;;;;;;0.40;0.40;;;;;;;-1.23;86.37;101927.34;4954663;28;20175;-77
2023/02/28 01:07:06;;;;;;;0.00;0.00;;;;;;;-1.32;86.46;101922.31;4954162;28;20198;-73
2023/02/28 01:09:32;;;;;;;1.80;1.03;;;;;;;-1.48;86.68;101927.97;4954210;28;20321;-74
2023/02/28 01:11:57;;;;;;;0.37;0.33;;;;;;;-1.61;87.18;101929.53;4954220;28;20253;-76
2023/02/28 01:14:22;;;;;;;0.30;0.30;;;;;;;-1.73;87.77;101935.63;4954258;28;20174;-74
2023/02/28 01:16:47;;;;;;;0.10;0.10;;;;;;;-1.77;88.28;101926.31;4953956;28;20171;-72
2023/02/28 01:19:13;;;;;;;0.00;0.00;;;;;;;-1.77;88.79;101940.53;4954129;28;20331;-74
2023/02/28 01:21:38;;;;;;;0.00;0.00;;;;;;;-1.75;88.91;101929.63;4954057;28;20527;-72
2023/02/28 01:24:05;;;;;;;0.20;0.20;;;;;;;-1.80;89.40;101931.03;4954097;28;20209;-74
2023/02/28 01:26:31;;;;;;;0.00;0.00;;;;;;;-1.78;89.26;101930.00;4952281;29;20198;-73
2023/02/28 01:28:56;;;;;;;0.70;0.70;;;;;;;-1.78;89.57;101940.72;4953956;28;20425;-73
2023/02/28 01:31:22;;;;;;;2.10;2.00;;;;;;;-1.85;90.58;101930.81;4953940;28;20174;-72
2023/02/28 01:33:47;;;;;;;0.37;0.37;;;;;;;-1.85;90.80;101933.47;4953828;28;20179;-73
2023/02/28 01:36:16;;;;;;;0.20;0.20;;;;;;;-1.84;91.31;101931.63;4953707;28;20444;-74
2023/02/28 01:38:42;;;;;;;0.77;0.77;;;;;;;-1.85;91.53;101936.16;4953690;28;20650;-72
2023/02/28 01:41:14;;;;;;;0.30;0.30;;;;;;;-1.88;91.88;101938.38;4953480;28;20909;-73
2023/02/28 01:43:43;;;;;;;0.00;0.00;;;;;;;-1.88;92.27;101927.66;4953640;28;20437;-72
2023/02/28 01:46:08;;;;;;;0.40;0.40;;;;;;;-1.95;92.28;101921.44;4953490;28;20454;-75
2023/02/28 01:48:41;;;;;;;5.10;1.33;;;;;;;-2.00;92.38;101922.00;4953356;28;20437;-76
2023/02/28 01:51:14;;;;;;;0.30;0.30;;;;;;;-2.05;92.98;101916.38;4953516;28;20189;-72
2023/02/28 01:53:45;;;;;;;0.10;0.10;;;;;;;-2.05;92.84;101923.59;4953598;28;20513;-76
2023/02/28 01:56:20;;;;;;;1.10;0.93;;;;;;;-2.05;93.46;101916.38;4953421;28;20403;-74
2023/02/28 01:58:49;;;;;;;0.20;0.20;;;;;;;-2.08;93.96;101916.78;4953443;28;20405;-72
2023/02/28 02:01:21;;;;;;;0.10;0.10;;;;;;;-2.13;93.67;101913.84;4953430;28;20441;-73
2023/02/28 02:03:55;;;;;;;0.33;0.20;;;;;;;-2.14;94.03;101914.88;4953375;28;20414;-72
2023/02/28 02:06:33;;;;;;;0.63;0.63;;;;;;;-2.17;93.85;101918.75;4953295;28;20453;-73
2023/02/28 02:08:59;;;;;;;0.10;0.10;;;;;;;-2.23;94.20;101906.13;4953248;28;20812;-71
2023/02/28 02:11:25;;;;;;;0.00;0.00;;;;;;;-2.25;94.31;101910.03;4953215;28;20414;-73
2023/02/28 02:14:02;;;;;;;0.00;0.00;;;;;;;-2.29;94.02;101898.88;4953018;28;20261;-73
2023/02/28 02:16:54;;;;;;;0.27;0.23;;;;;;;-2.27;94.50;101907.53;4953158;28;21147;-73
2023/02/28 02:19:40;;;;;;;1.10;1.10;;;;;;;-2.41;94.53;101898.53;4932213;28;20434;-72
2023/02/28 02:22:37;;;;;;;0.13;0.13;;;;;;;-2.46;94.92;101900.09;4953539;28;20461;-73
2023/02/28 02:25:19;;;;;;;0.53;0.37;;;;;;;-2.50;95.38;101891.63;4953074;28;20419;-71
2023/02/28 02:28:06;;;;;;;0.00;0.00;;;;;;;-2.60;96.00;101893.00;4952928;28;20485;-72
2023/02/28 02:30:50;;;;;;;0.73;0.73;;;;;;;-2.66;96.68;101893.72;4952741;28;20418;-74
2023/02/28 02:33:38;;;;;;;0.17;0.17;;;;;;;-2.70;97.16;101893.28;4952832;28;20755;-72
2023/02/28 02:36:12;;;;;;;0.57;0.57;;;;;;;-2.76;97.42;101886.00;4952679;28;20426;-71
2023/02/28 02:38:59;;;;;;;0.97;0.73;;;;;;;-2.86;97.89;101877.47;4952780;28;20414;-72
2023/02/28 02:41:35;;;;;;;0.43;0.43;;;;;;;-2.89;98.38;101888.50;4953176;28;20993;-72
2023/02/28 02:44:08;;;;;;;0.00;0.00;;;;;;;-2.81;98.63;101885.72;4953055;28;20440;-72
2023/02/28 02:46:41;;;;;;;0.00;0.00;;;;;;;-2.79;98.64;101881.84;4952586;28;20481;-74
2023/02/28 02:49:12;;;;;;;0.37;0.37;;;;;;;-2.83;98.76;101882.41;4952530;28;20473;-73
2023/02/28 02:51:40;;;;;;;0.10;0.10;;;;;;;-2.89;98.55;101883.16;4951508;29;20505;-71
2023/02/28 02:54:11;;;;;;;0.33;0.33;;;;;;;-2.90;98.74;101881.50;4952753;28;20426;-73
2023/02/28 02:56:42;;;;;;;0.30;0.20;;;;;;;-2.97;99.18;101883.28;4952806;28;20497;-72
2023/02/28 02:59:11;;;;;;;0.13;0.13;;;;;;;-3.04;98.99;101888.53;4952682;28;20430;-72
2023/02/28 03:01:38;;;;;;;0.53;0.53;;;;;;;-3.12;99.85;101885.97;4952576;28;20430;-75
2023/02/28 03:04:18;;;;;;;0.40;0.40;;;;;;;-3.20;99.77;101888.72;4952866;28;20425;-72
2023/02/28 03:06:43;;;;;;;0.00;0.00;;;;;;;-3.21;100.00;101893.25;4952436;28;20475;-72
2023/02/28 03:09:09;;;;;;;0.33;0.33;;;;;;;-3.23;100.00;101892.59;4952601;28;20800;-72
2023/02/28 03:11:37;;;;;;;0.10;0.07;;;;;;;-3.23;100.00;101900.63;4952590;28;20262;-75
2023/02/28 03:14:20;;;;;;;0.57;0.57;;;;;;;-3.15;100.00;101892.50;4952402;28;20179;-72
2023/02/28 03:17:05;;;;;;;1.13;1.13;;;;;;;-3.16;100.00;101893.53;4952420;28;20419;-72
2023/02/28 03:19:38;;;;;;;0.00;0.00;;;;;;;-3.03;100.00;101890.22;4952476;28;20453;-72
2023/02/28 03:22:49;;;;;;;0.07;0.07;;;;;;;-3.02;100.00;101890.03;4952472;28;20450;-71
2023/02/28 03:25:31;;;;;;;0.10;0.10;;;;;;;-3.07;100.00;101889.72;4912894;29;20443;-72
2023/02/28 03:28:11;;;;;;;0.00;0.00;;;;;;;-3.07;99.68;101892.41;4952506;28;21167;-72
2023/02/28 03:30:39;;;;;;;1.23;1.23;;;;;;;-3.08;99.62;101892.59;4955970;28;20429;-72
2023/02/28 03:33:19;;;;;;;0.30;0.30;;;;;;;-3.14;99.86;101882.66;4956104;28;20549;-76
2023/02/28 03:35:55;;;;;;;0.00;0.00;;;;;;;-3.08;99.86;101896.09;4955882;28;20448;-73
2023/02/28 03:38:41;;;;;;;0.93;0.93;;;;;;;-3.15;99.64;101889.84;4955905;28;20430;-72
2023/02/28 03:41:13;;;;;;;0.33;0.33;;;;;;;-3.24;99.31;101898.13;4948688;29;20525;-72
2023/02/28 03:43:43;;;;;;;1.07;1.07;;;;;;;-3.25;99.51;101891.97;4955536;28;20414;-73
2023/02/28 03:46:12;;;;;;;0.40;0.40;;;;;;;-3.15;99.69;101905.06;4954379;28;20504;-72
2023/02/28 03:48:50;;;;;;;0.00;0.00;;;;;;;-3.14;99.73;101898.69;4955631;28;20788;-73
2023/02/28 03:51:20;;;;;;;0.00;0.00;;;;;;;-3.04;99.74;101892.06;4954580;28;20422;-73
2023/02/28 03:53:53;;;;;;;0.10;0.10;;;;;;;-2.90;99.96;101900.22;4955651;28;20454;-75
2023/02/28 03:56:27;;;;;;;0.47;0.47;;;;;;;-2.81;99.92;101901.78;4955597;28;20768;-75
2023/02/28 03:59:04;;;;;;;0.93;0.93;;;;;;;-2.79;99.79;101910.44;4955643;28;20418;-72
2023/02/28 04:01:48;;;;;;;0.10;0.10;;;;;;;-2.79;99.35;101899.75;4955668;28;20417;-73
2023/02/28 04:04:14;;;;;;;0.23;0.23;;;;;;;-2.83;98.83;101901.97;4954457;29;20426;-72
2023/02/28 04:06:40;;;;;;;0.20;0.20;;;;;;;-2.87;98.55;101906.03;4955295;28;20538;-74
2023/02/28 04:09:07;;;;;;;0.00;0.00;;;;;;;-2.89;98.67;101904.53;4955299;28;20430;-72
2023/02/28 04:11:36;;;;;;;0.53;0.53;;;;;;;-2.92;98.53;101905.75;4955486;28;20186;-72
2023/02/28 04:14:03;;;;;;;0.10;0.10;;;;;;;-3.02;98.32;101910.56;4955319;28;20426;-82
2023/02/28 04:16:29;;;;;;;0.13;0.13;;;;;;;-3.12;98.31;101908.19;4955253;28;20482;-82
2023/02/28 04:19:01;;;;;;;0.10;0.10;;;;;;;-3.20;98.30;101902.09;4955150;28;20453;-82
2023/02/28 04:21:27;;;;;;;0.57;0.57;;;;;;;-3.25;98.42;101907.16;4956104;28;20870;-80
2023/02/28 04:23:53;;;;;;;0.00;0.00;;;;;;;-3.36;98.72;101914.63;4955911;28;20815;-80
2023/02/28 04:26:18;;;;;;;0.00;0.00;;;;;;;-3.39;98.93;101914.16;4954840;28;20457;-80
2023/02/28 04:28:43;;;;;;;0.00;0.00;;;;;;;-3.40;99.10;101916.00;4955045;28;20509;-81
2023/02/28 04:31:09;;;;;;;0.10;0.10;;;;;;;-3.39;99.95;101914.16;4955109;28;20651;-82
2023/02/28 04:33:34;;;;;;;0.53;0.53;;;;;;;-3.39;100.00;101919.50;4955002;28;20183;-82
2023/02/28 04:36:02;;;;;;;1.47;1.37;;;;;;;-3.39;100.00;101912.31;4954027;28;20714;-80
2023/02/28 04:38:27;;;;;;;0.00;0.00;;;;;;;-3.31;100.00;101916.75;4954406;28;20166;-80
2023/02/28 04:40:53;;;;;;;0.20;0.20;;;;;;;-3.18;100.00;101911.59;4954999;28;20430;-81
2023/02/28 04:43:18;;;;;;;0.10;0.10;;;;;;;-3.06;100.00;101918.13;4954855;28;20179;-80
2023/02/28 04:45:43;;;;;;;0.00;0.00;;;;;;;-2.99;100.00;101920.91;4954725;28;20193;-78
2023/02/28 04:48:08;;;;;;;0.00;0.00;;;;;;;-2.87;100.00;101926.59;4953335;28;20226;-81
2023/02/28 04:50:34;;;;;;;0.13;0.13;;;;;;;-2.86;100.00;101929.09;4954749;28;20179;-81
2023/02/28 04:52:59;;;;;;;1.27;1.27;;;;;;;-2.83;100.00;101922.53;4954645;28;20185;-81
2023/02/28 04:55:24;;;;;;;0.20;0.20;;;;;;;-2.83;100.00;101928.72;4954940;28;20185;-79
2023/02/28 04:57:50;;;;;;;0.00;0.00;;;;;;;-2.57;100.00;101932.72;4954642;28;20207;-80
2023/02/28 05:00:16;;;;;;;0.00;0.00;;;;;;;-2.43;100.00;101930.03;4954584;28;20175;-81
2023/02/28 05:02:42;;;;;;;0.00;0.00;;;;;;;-2.49;100.00;101929.94;4954424;28;20181;-81
2023/02/28 05:05:08;;;;;;;0.00;0.00;;;;;;;-2.38;100.00;101928.63;4954311;28;20418;-80
2023/02/28 05:07:33;;;;;;;0.00;0.00;;;;;;;-2.21;100.00;101927.34;4954314;28;20747;-81
2023/02/28 05:09:58;;;;;;;0.00;0.00;;;;;;;-2.10;100.00;101922.31;4954384;28;20183;-79
2023/02/28 05:12:23;;;;;;;0.00;0.00;;;;;;;-2.18;100.00;101922.44;4954403;28;20179;-80
2023/02/28 05:14:49;;;;;;;0.00;0.00;;;;;;;-2.08;100.00;101924.81;4954340;28;20183;-81
2023/02/28 05:17:14;;;;;;;0.00;0.00;;;;;;;-2.13;100.00;101935.28;4954082;28;20202;-81
2023/02/28 05:19:39;;;;;;;0.40;0.40;;;;;;;-1.93;100.00;101935.44;4954147;28;20526;-81
2023/02/28 05:22:04;;;;;;;0.00;0.00;;;;;;;-1.78;100.00;101925.50;4954191;28;20202;-81
2023/02/28 05:24:30;;;;;;;0.00;0.00;;;;;;;-1.68;100.00;101926.00;4954088;28;20210;-81
2023/02/28 05:26:55;;;;;;;0.00;0.00;;;;;;;-1.64;100.00;101927.25;4953844;28;20297;-82
2023/02/28 05:29:21;;;;;;;0.27;0.27;;;;;;;-1.58;100.00;101926.50;4954003;28;20182;-82
2023/02/28 05:31:47;;;;;;;0.00;0.00;;;;;;;-1.56;100.00;101927.13;4953904;28;20178;-81
2023/02/28 05:34:12;;;;;;;0.00;0.00;;;;;;;-1.60;99.78;101919.66;4953929;28;20190;-80
2023/02/28 05:36:38;;;;;;;0.00;0.00;;;;;;;-1.62;99.65;101914.47;4953773;28;20178;-80
2023/02/28 05:39:12;;;;;;;0.63;0.63;;;;;;;-1.75;98.60;101916.22;4953765;28;20254;-82
2023/02/28 05:41:37;;;;;;;0.00;0.00;;;;;;;-1.99;98.54;101920.16;4953784;28;20489;-80
2023/02/28 05:44:03;;;;;;;0.00;0.00;;;;;;;-2.16;98.47;101914.25;4953905;28;20446;-82
2023/02/28 05:46:28;;;;;;;0.23;0.23;;;;;;;-2.29;98.50;101908.75;4953422;28;20202;-81
2023/02/28 05:48:55;;;;;;;0.97;0.97;;;;;;;-2.44;98.95;101911.47;4953253;28;20213;-76
2023/02/28 05:51:20;;;;;;;0.00;0.00;;;;;;;-2.53;99.13;101917.94;4953577;28;20202;-79
2023/02/28 05:53:48;;;;;;;0.60;0.60;;;;;;;-2.59;100.00;101919.53;4953552;28;20423;-80
2023/02/28 05:56:13;;;;;;;0.37;0.37;;;;;;;-2.72;100.00;101922.06;4953331;28;20182;-79
2023/02/28 05:58:38;;;;;;;0.30;0.30;;;;;;;-2.86;100.00;101922.91;4953495;28;20442;-81
2023/02/28 06:01:47;;;;;;;0.00;0.00;;;;;;;-2.87;100.00;101921.25;4953749;28;20179;-72
2023/02/28 06:04:14;;;;;;;0.10;0.10;;;;;;;-2.97;100.00;101915.34;4956076;28;20179;-72
2023/02/28 06:06:40;;;;;;;0.63;0.63;;;;;;;-2.95;100.00;101924.84;4955773;28;20561;-72
2023/02/28 06:09:05;;;;;;;1.67;1.57;;;;;;;-3.01;100.00;101918.41;4953978;28;20729;-71
2023/02/28 06:11:30;;;;;;;4.40;2.63;;;;;;;-3.05;100.00;101913.59;4953371;28;20181;-72
2023/02/28 06:13:59;;;;;;;1.10;1.07;;;;;;;-3.04;100.00;101915.25;4953548;28;20210;-72
2023/02/28 06:16:25;;;;;;;0.40;0.40;;;;;;;-3.02;100.00;101918.59;4953080;28;20600;-72
2023/02/28 06:18:52;;;;;;;1.23;1.13;;;;;;;-3.01;100.00;101926.44;4953200;28;20509;-72
2023/02/28 06:21:18;;;;;;;0.00;0.00;;;;;;;-3.02;100.00;101931.97;4953086;28;20435;-72
2023/02/28 06:23:43;;;;;;;0.00;0.00;;;;;;;-3.02;100.00;101938.13;4953008;28;20445;-71
2023/02/28 06:26:09;;;;;;;0.00;0.00;;;;;;;-3.04;100.00;101932.16;4952947;28;20206;-72
2023/02/28 06:28:34;;;;;;;0.00;0.00;;;;;;;-2.84;100.00;101943.09;4953025;28;20179;-72
2023/02/28 06:30:59;;;;;;;0.00;0.00;;;;;;;-2.73;100.00;101941.81;4953034;28;20267;-72
2023/02/28 06:33:25;;;;;;;0.00;0.00;;;;;;;-2.65;100.00;101928.31;4952928;28;20210;-72
2023/02/28 06:35:51;;;;;;;0.97;0.97;;;;;;;-2.71;100.00;101937.09;4952686;28;20190;-72
2023/02/28 06:38:16;;;;;;;0.00;0.00;;;;;;;-2.83;100.00;101946.59;4952868;28;20187;-72
2023/02/28 06:40:41;;;;;;;0.07;0.07;;;;;;;-3.23;100.00;101954.06;4952945;28;20194;-72
2023/02/28 06:43:07;;;;;;;0.57;0.57;;;;;;;-3.02;100.00;101956.03;4952875;28;20187;-72
2023/02/28 06:45:32;;;;;;;0.43;0.43;;;;;;;-2.82;100.00;101959.78;4952735;28;20562;-76
2023/02/28 06:47:58;;;;;;;0.00;0.00;;;;;;;-2.77;100.00;101972.59;4952711;28;20257;-72
2023/02/28 06:50:23;;;;;;;0.00;0.00;;;;;;;-2.69;100.00;101975.19;4952718;28;20241;-72
2023/02/28 06:52:53;;;;;;;0.97;0.97;;;;;;;-2.58;100.00;101971.19;4952801;28;20186;-71
2023/02/28 06:55:19;;;;;;;0.20;0.20;;;;;;;-2.55;100.00;101976.16;4952718;28;20288;-73
2023/02/28 06:57:44;;;;;;;1.20;1.20;;;;;;;-2.51;100.00;101975.59;4956732;28;20545;-72
2023/02/28 07:00:10;;;;;;;0.00;0.00;;;;;;;-2.48;100.00;101974.41;4973285;28;20261;-72
2023/02/28 07:02:37;;;;;;;0.00;0.00;;;;;;;-2.51;100.00;101978.28;4974666;28;20645;-72
2023/02/28 07:05:03;;;;;;;0.00;0.00;;;;;;;-2.45;100.00;101982.91;4975955;28;20178;-73
2023/02/28 07:07:29;;;;;;;3.43;0.93;;;;;;;-2.36;100.00;101978.25;4975682;28;20504;-72
2023/02/28 07:09:54;;;;;;;0.10;0.10;;;;;;;-2.40;100.00;101990.34;4975862;28;20456;-72
2023/02/28 07:12:19;;;;;;;0.00;0.00;;;;;;;-2.41;100.00;101986.84;4975848;28;20209;-72
2023/02/28 07:14:44;;;;;;;0.00;0.00;;;;;;;-2.34;100.00;101981.56;4975747;28;20182;-72
2023/02/28 07:17:11;;;;;;;0.00;0.00;;;;;;;-2.20;100.00;101990.56;4976126;28;20196;-72
2023/02/28 07:19:38;;;;;;;0.37;0.37;;;;;;;-2.05;100.00;101990.53;4975794;28;20178;-73
2023/02/28 07:22:03;;;;;;;0.00;0.00;;;;;;;-1.96;100.00;101995.56;4975707;28;20520;-72
2023/02/28 07:24:29;;;;;;;1.70;1.70;;;;;;;-1.90;100.00;101993.97;4975632;28;20509;-78
2023/02/28 07:26:54;;;;;;;0.00;0.00;;;;;;;-1.77;100.00;101994.09;4975534;28;20204;-72
2023/02/28 07:29:20;;;;;;;0.00;0.00;;;;;;;-1.69;100.00;101995.84;4975654;28;20240;-76
2023/02/28 07:31:46;;;;;;;0.10;0.10;;;;;;;-1.63;100.00;101992.38;4975643;28;20697;-76
2023/02/28 07:34:11;;;;;;;0.00;0.00;;;;;;;-1.61;100.00;101999.19;4975863;28;20182;-78
2023/02/28 07:36:37;;;;;;;0.00;0.00;;;;;;;-1.61;100.00;102003.72;4975023;28;20264;-78
2023/02/28 07:39:02;;;;;;;0.00;0.00;;;;;;;-1.64;100.00;101999.59;4974854;28;20220;-73
2023/02/28 07:41:29;;;;;;;0.33;0.33;;;;;;;-1.66;100.00;101998.13;4975122;28;20178;-75
2023/02/28 07:43:59;;;;;;;0.00;0.00;;;;;;;-1.67;100.00;101999.16;4975705;28;20174;-76
2023/02/28 07:46:25;;;;;;;0.57;0.57;;;;;;;-1.61;100.00;102003.72;4974861;28;20556;-79
2023/02/28 07:48:50;;;;;;;0.00;0.00;;;;;;;-1.62;100.00;102002.91;4975164;28;20261;-78
2023/02/28 07:51:15;;;;;;;0.00;0.00;;;;;;;-1.61;99.59;101996.53;4975077;28;20257;-80
2023/02/28 07:53:41;;;;;;;0.00;0.00;;;;;;;-1.61;99.36;102009.91;4975036;28;20174;-81
2023/02/28 07:56:06;;;;;;;0.00;0.00;;;;;;;-1.58;99.02;102004.19;4974830;28;20178;-80
2023/02/28 07:58:32;;;;;;;0.03;0.03;;;;;;;-1.53;99.38;101999.06;4974844;28;20178;-79
2023/02/28 08:01:04;;;;;;;0.00;0.00;;;;;;;-1.45;99.75;101999.94;4974834;28;20189;-78
2023/02/28 08:03:29;;;;;;;0.00;0.00;;;;;;;-1.38;99.00;102001.69;4974807;28;20182;-78
2023/02/28 08:05:54;;;;;;;0.00;0.00;;;;;;;-1.28;98.91;101998.66;4974564;28;20429;-78
2023/02/28 08:08:20;;;;;;;0.00;0.00;;;;;;;-1.21;98.99;102000.34;4974671;28;20709;-79
2023/02/28 08:10:45;;;;;;;0.00;0.00;;;;;;;-1.15;97.84;102005.97;4974402;28;20189;-79
2023/02/28 08:13:10;;;;;;;3.00;2.87;;;;;;;-1.08;97.01;102001.47;4974477;28;20228;-78
2023/02/28 08:15:36;;;;;;;0.00;0.00;;;;;;;-0.99;96.18;101998.47;4974500;28;20182;-76
2023/02/28 08:18:01;;;;;;;0.63;0.63;;;;;;;-0.89;95.80;101995.41;4974517;28;20195;-78
2023/02/28 08:20:27;;;;;;;0.77;0.77;;;;;;;-0.84;95.06;101992.97;4973163;28;20716;-78
2023/02/28 08:22:52;;;;;;;0.00;0.00;;;;;;;-0.75;94.28;101991.78;4974603;28;20281;-76
2023/02/28 08:25:18;;;;;;;0.10;0.10;;;;;;;-0.62;94.34;101996.38;4974393;28;20182;-80
2023/02/28 08:27:43;;;;;;;1.53;1.43;;;;;;;-0.56;93.20;102000.97;4974058;28;20303;-85
2023/02/28 08:30:14;;;;;;;0.63;0.63;;;;;;;-0.37;92.41;101994.03;4957032;28;20551;-77
2023/02/28 08:32:40;;;;;;;0.00;0.00;;;;;;;-0.34;92.07;102001.66;4955004;28;20540;-77
2023/02/28 08:35:06;;;;;;;20.13;2.83;;;;;;;-0.26;91.95;102006.88;4954824;28;20191;-81
2023/02/28 08:37:31;;;;;;;0.00;0.00;;;;;;;-0.16;91.85;102006.47;4954713;28;20433;-80
2023/02/28 08:39:57;;;;;;;0.03;0.03;;;;;;;-0.11;91.25;102002.16;4954887;28;20430;-76
2023/02/28 08:42:23;;;;;;;1.00;0.93;;;;;;;-0.15;90.40;101994.69;4954820;28;20202;-82
2023/02/28 08:44:48;;;;;;;0.10;0.10;;;;;;;-0.15;90.11;102000.91;4954770;28;20186;-85
2023/02/28 08:47:14;;;;;;;1.00;1.00;;;;;;;-0.14;89.42;102002.59;4954660;28;20296;-80
2023/02/28 08:49:39;;;;;;;0.30;0.30;;;;;;;-0.04;89.45;102000.31;4954667;28;20217;-76
2023/02/28 08:52:05;;;;;;;0.30;0.30;;;;;;;0.07;89.48;102011.50;4954482;28;20238;-77
2023/02/28 08:54:33;;;;;;;0.63;0.57;;;;;;;0.06;89.07;102004.47;4954409;28;20182;-81
2023/02/28 08:56:58;;;;;;;0.53;0.50;;;;;;;0.15;88.74;102011.34;4954320;28;20194;-80
2023/02/28 08:59:23;;;;;;;0.30;0.30;;;;;;;0.32;88.12;102007.22;4954463;29;20178;-82
2023/02/28 09:01:48;;;;;;;0.20;0.20;;;;;;;0.46;88.01;102013.44;4954405;28;20179;-84
2023/02/28 09:04:14;;;;;;;0.00;0.00;;;;;;;0.42;86.88;102009.50;4954398;28;20199;-79
2023/02/28 09:06:39;;;;;;;1.60;0.60;;;;;;;0.47;87.19;102012.41;4954224;28;20206;-83
2023/02/28 09:09:07;;;;;;;0.87;0.87;;;;;;;0.48;86.79;102004.13;4954328;28;20269;-75
2023/02/28 09:11:34;;;;;;;0.00;0.00;;;;;;;0.64;87.12;102015.50;4954175;28;20742;-77
2023/02/28 09:14:00;;;;;;;0.00;0.00;;;;;;;0.59;86.43;102014.28;4953859;28;20598;-75
2023/02/28 09:16:26;;;;;;;0.10;0.10;;;;;;;0.72;86.69;102021.50;4954245;28;20190;-82
2023/02/28 09:18:51;;;;;;;0.43;0.43;;;;;;;0.80;86.20;102007.03;4953958;28;20226;-80
2023/02/28 09:21:18;;;;;;;0.30;0.30;;;;;;;0.74;85.48;102007.88;4953773;28;20186;-78
2023/02/28 09:23:45;;;;;;;1.40;1.30;;;;;;;0.71;85.21;102008.25;4952816;28;20182;-79
2023/02/28 09:26:20;;;;;;;0.47;0.47;;;;;;;0.86;86.10;102003.50;4953165;28;20190;-78
2023/02/28 09:28:45;;;;;;;0.03;0.03;;;;;;;0.92;86.09;102008.06;4957332;28;20684;-80
2023/02/28 09:31:16;;;;;;;0.50;0.50;;;;;;;0.95;86.17;102013.00;4972850;28;20205;-76
2023/02/28 09:33:42;;;;;;;0.50;0.50;;;;;;;0.71;86.00;102009.09;4972864;28;20260;-79
2023/02/28 09:36:08;;;;;;;1.17;1.07;;;;;;;0.71;85.92;102019.00;4972535;28;20285;-79
2023/02/28 09:38:33;;;;;;;0.43;0.43;;;;;;;0.92;86.78;102016.13;4972981;28;20598;-78
2023/02/28 09:41:02;;;;;;;0.77;0.77;;;;;;;1.12;86.93;102022.28;4972624;28;20208;-80
2023/02/28 09:43:34;;;;;;;0.30;0.30;;;;;;;1.05;86.21;102016.09;4972933;28;20233;-77
2023/02/28 09:46:07;;;;;;;0.97;0.97;;;;;;;1.08;85.59;102009.47;4971976;28;20178;-78
2023/02/28 09:48:37;;;;;;;0.27;0.27;;;;;;;1.06;85.11;102011.56;4972550;28;20178;-79
2023/02/28 09:51:09;;;;;;;0.33;0.33;;;;;;;1.14;84.80;102014.84;4972384;28;20204;-76
2023/02/28 09:53:39;;;;;;;0.20;0.20;;;;;;;1.04;84.51;102010.94;4972451;28;20213;-77
2023/02/28 09:56:09;;;;;;;0.67;0.67;;;;;;;1.12;83.93;102016.91;4972299;28;20173;-76
2023/02/28 09:58:44;;;;;;;0.00;0.00;;;;;;;1.18;83.59;102008.00;4972384;28;20188;-79
2023/02/28 10:01:38;;;;;;;0.17;0.17;;;;;;;1.36;82.78;102014.59;4972329;28;20597;-76
2023/02/28 10:04:27;;;;;;;0.27;0.27;;;;;;;1.27;81.77;102005.91;4972510;28;20212;-77
2023/02/28 10:06:53;;;;;;;0.00;0.00;;;;;;;1.34;81.34;102006.72;4971985;28;20194;-77
2023/02/28 10:09:26;;;;;;;0.20;0.20;;;;;;;1.27;81.51;102010.47;4972135;28;20181;-77
2023/02/28 10:11:54;;;;;;;0.90;0.80;;;;;;;1.33;80.87;102004.25;4971828;28;20540;-78
2023/02/28 10:14:22;;;;;;;0.60;0.60;;;;;;;1.38;80.56;101999.03;4972178;28;20592;-77
2023/02/28 10:16:54;;;;;;;0.40;0.40;;;;;;;1.41;80.67;102010.22;4971859;28;20205;-78
2023/02/28 10:19:34;;;;;;;0.10;0.10;;;;;;;1.46;80.72;102004.22;4971910;28;20692;-77
2023/02/28 10:22:04;;;;;;;0.40;0.40;;;;;;;1.48;80.50;102002.13;4971966;28;20676;-78
2023/02/28 10:24:35;;;;;;;0.97;0.90;;;;;;;1.47;80.61;102013.94;4971834;28;20220;-76
2023/02/28 10:27:12;;;;;;;0.77;0.77;;;;;;;1.58;80.84;102001.66;4971776;28;20198;-75
2023/02/28 10:29:42;;;;;;;0.10;0.10;;;;;;;1.68;81.07;102012.81;4971852;28;20543;-76
2023/02/28 10:32:10;;;;;;;0.00;0.00;;;;;;;1.86;80.87;102006.72;4971843;28;20197;-76
2023/02/28 10:34:36;;;;;;;0.00;0.00;;;;;;;1.87;80.57;102008.38;4971411;28;20256;-77
2023/02/28 10:37:07;;;;;;;0.77;0.27;;;;;;;1.82;80.58;102005.50;4971531;28;20173;-75
2023/02/28 10:39:38;;;;;;;0.10;0.10;;;;;;;1.92;80.48;102004.00;4971770;28;20174;-77
2023/02/28 10:42:04;;;;;;;0.40;0.40;;;;;;;1.89;80.18;102006.31;4971649;28;20178;-75
2023/02/28 10:44:29;;;;;;;0.77;0.63;;;;;;;1.90;80.46;102003.41;4971659;28;20178;-75
2023/02/28 10:46:56;;;;;;;2.10;0.93;;;;;;;2.08;79.68;102002.66;4970051;28;20708;-77
2023/02/28 10:49:24;;;;;;;0.53;0.33;;;;;;;2.09;79.68;101997.06;4971570;28;20240;-77
2023/02/28 10:51:54;;;;;;;2.20;2.10;;;;;;;2.24;80.02;102012.09;4971393;28;20575;-76
2023/02/28 10:54:26;;;;;;;0.63;0.63;;;;;;;2.27;79.51;102001.72;4971475;28;20170;-76
2023/02/28 10:57:15;;;;;;;0.20;0.20;;;;;;;2.42;79.37;101998.69;4971298;28;20185;-76
2023/02/28 10:59:41;;;;;;;0.00;0.00;;;;;;;2.58;78.08;101991.94;4972078;28;20174;-75
2023/02/28 11:02:34;;;;;;;0.33;0.33;;;;;;;2.69;77.58;101994.75;4971138;28;20691;-76
2023/02/28 11:04:59;;;;;;;0.97;0.90;;;;;;;2.66;76.54;101984.41;4966278;28;20201;-76
2023/02/28 11:07:26;;;;;;;0.13;0.13;;;;;;;2.56;76.26;101989.47;4971215;28;20209;-76
2023/02/28 11:09:54;;;;;;;1.30;1.20;;;;;;;2.67;75.32;101975.25;4971382;28;20189;-75
2023/02/28 11:12:25;;;;;;;0.27;0.23;;;;;;;2.66;74.73;101965.50;4971336;28;20638;-74
2023/02/28 11:14:57;;;;;;;0.00;0.00;;;;;;;3.21;75.40;101975.56;4971484;28;20182;-74
2023/02/28 11:17:26;;;;;;;0.03;0.03;;;;;;;3.17;73.24;101960.84;4971171;28;20178;-73
2023/02/28 11:19:54;;;;;;;0.73;0.40;;;;;;;3.19;72.71;101962.28;4971381;28;20174;-76
2023/02/28 11:22:29;;;;;;;0.40;0.40;;;;;;;2.89;69.94;101935.22;4971301;28;20186;-76
2023/02/28 11:24:59;;;;;;;0.40;0.40;;;;;;;2.82;69.75;101944.41;4971134;28;20177;-76
2023/02/28 11:27:26;;;;;;;0.53;0.40;;;;;;;2.81;70.11;101943.59;4970957;28;20220;-75
2023/02/28 11:29:51;;;;;;;0.20;0.20;;;;;;;3.20;70.01;101938.81;4971119;28;20260;-74
2023/02/28 11:32:21;;;;;;;0.73;0.70;;;;;;;3.31;69.16;101938.03;4971259;28;20697;-75